sensor_id;sensor_type;location;lat;lon;timestamp;P1;durP1;ratioP1;P2;durP2;ratioP2
67195;SDS011;54122;53.538;49.366;2023-05-31T00:00:54;15.77;;;3.35;;
67195;SDS011;54122;53.538;49.366;2023-05-31T00:03:20;18.63;;;4.90;;
67195;SDS011;54122;53.538;49.366;2023-05-31T00:05:46;14.10;;;4.13;;
67195;SDS011;54122;53.538;49.366;2023-05-31T00:08:12;18.88;;;3.97;;
67195;SDS011;54122;53.538;49.366;2023-05-31T00:10:38;17.13;;;4.20;;
67195;SDS011;54122;53.538;49.366;2023-05-31T00:13:05;21.10;;;4.00;;
67195;SDS011;54122;53.538;49.366;2023-05-31T00:15:31;26.27;;;5.30;;
67195;SDS011;54122;53.538;49.366;2023-05-31T00:17:57;16.85;;;4.38;;
67195;SDS011;54122;53.538;49.366;2023-05-31T00:20:23;25.65;;;4.53;;
67195;SDS011;54122;53.538;49.366;2023-05-31T00:22:49;23.60;;;4.13;;
67195;SDS011;54122;53.538;49.366;2023-05-31T00:25:15;22.52;;;3.97;;
67195;SDS011;54122;53.538;49.366;2023-05-31T00:27:42;26.55;;;4.45;;
67195;SDS011;54122;53.538;49.366;2023-05-31T00:30:08;21.00;;;3.53;;
67195;SDS011;54122;53.538;49.366;2023-05-31T00:32:35;19.73;;;4.25;;
67195;SDS011;54122;53.538;49.366;2023-05-31T00:35:01;23.50;;;3.83;;
67195;SDS011;54122;53.538;49.366;2023-05-31T00:37:27;15.80;;;3.88;;
67195;SDS011;54122;53.538;49.366;2023-05-31T00:39:53;16.02;;;4.15;;
67195;SDS011;54122;53.538;49.366;2023-05-31T00:42:20;14.93;;;3.75;;
67195;SDS011;54122;53.538;49.366;2023-05-31T00:44:46;16.25;;;3.78;;
67195;SDS011;54122;53.538;49.366;2023-05-31T00:47:12;17.73;;;3.85;;
67195;SDS011;54122;53.538;49.366;2023-05-31T00:49:38;18.35;;;4.22;;
67195;SDS011;54122;53.538;49.366;2023-05-31T00:52:05;15.30;;;3.53;;
67195;SDS011;54122;53.538;49.366;2023-05-31T00:54:31;25.77;;;4.03;;
67195;SDS011;54122;53.538;49.366;2023-05-31T00:56:58;12.13;;;3.25;;
67195;SDS011;54122;53.538;49.366;2023-05-31T00:59:24;7.95;;;2.38;;
67195;SDS011;54122;53.538;49.366;2023-05-31T01:01:51;16.98;;;3.95;;
67195;SDS011;54122;53.538;49.366;2023-05-31T01:04:19;16.77;;;3.30;;
67195;SDS011;54122;53.538;49.366;2023-05-31T01:06:46;23.05;;;3.95;;
67195;SDS011;54122;53.538;49.366;2023-05-31T01:09:15;18.35;;;2.95;;
67195;SDS011;54122;53.538;49.366;2023-05-31T01:14:42;9.05;;;3.35;;
67195;SDS011;54122;53.538;49.366;2023-05-31T01:17:36;18.95;;;3.72;;
67195;SDS011;54122;53.538;49.366;2023-05-31T01:20:16;24.55;;;3.42;;
67195;SDS011;54122;53.538;49.366;2023-05-31T01:27:47;16.95;;;3.20;;
67195;SDS011;54122;53.538;49.366;2023-05-31T01:30:16;18.65;;;3.63;;
67195;SDS011;54122;53.538;49.366;2023-05-31T01:32:42;20.55;;;3.60;;
67195;SDS011;54122;53.538;49.366;2023-05-31T01:35:10;14.82;;;3.20;;
67195;SDS011;54122;53.538;49.366;2023-05-31T01:37:37;12.40;;;3.20;;
67195;SDS011;54122;53.538;49.366;2023-05-31T01:40:03;17.80;;;3.30;;
67195;SDS011;54122;53.538;49.366;2023-05-31T01:42:31;19.10;;;3.10;;
67195;SDS011;54122;53.538;49.366;2023-05-31T01:44:57;9.48;;;2.40;;
67195;SDS011;54122;53.538;49.366;2023-05-31T01:47:25;11.20;;;3.15;;
67195;SDS011;54122;53.538;49.366;2023-05-31T01:49:52;11.18;;;2.72;;
67195;SDS011;54122;53.538;49.366;2023-05-31T01:52:19;25.23;;;4.07;;
67195;SDS011;54122;53.538;49.366;2023-05-31T01:54:46;17.40;;;3.53;;
67195;SDS011;54122;53.538;49.366;2023-05-31T01:57:13;18.10;;;3.28;;
67195;SDS011;54122;53.538;49.366;2023-05-31T01:59:40;12.75;;;3.15;;
67195;SDS011;54122;53.538;49.366;2023-05-31T02:02:08;15.13;;;4.00;;
67195;SDS011;54122;53.538;49.366;2023-05-31T02:04:35;13.15;;;3.05;;
67195;SDS011;54122;53.538;49.366;2023-05-31T02:07:02;16.60;;;3.60;;
67195;SDS011;54122;53.538;49.366;2023-05-31T02:09:29;13.80;;;3.55;;
67195;SDS011;54122;53.538;49.366;2023-05-31T02:11:55;14.45;;;3.50;;
67195;SDS011;54122;53.538;49.366;2023-05-31T02:14:21;20.75;;;3.72;;
67195;SDS011;54122;53.538;49.366;2023-05-31T02:16:48;12.45;;;3.20;;
67195;SDS011;54122;53.538;49.366;2023-05-31T02:19:14;14.85;;;2.80;;
67195;SDS011;54122;53.538;49.366;2023-05-31T02:21:41;17.45;;;3.22;;
67195;SDS011;54122;53.538;49.366;2023-05-31T02:24:07;12.50;;;2.53;;
67195;SDS011;54122;53.538;49.366;2023-05-31T02:26:34;9.70;;;2.85;;
67195;SDS011;54122;53.538;49.366;2023-05-31T02:29:00;9.05;;;2.80;;
67195;SDS011;54122;53.538;49.366;2023-05-31T02:31:26;17.50;;;2.80;;
67195;SDS011;54122;53.538;49.366;2023-05-31T02:33:53;8.73;;;2.58;;
67195;SDS011;54122;53.538;49.366;2023-05-31T02:36:19;15.63;;;2.95;;
67195;SDS011;54122;53.538;49.366;2023-05-31T02:38:46;14.68;;;2.50;;
67195;SDS011;54122;53.538;49.366;2023-05-31T02:41:12;12.77;;;2.95;;
67195;SDS011;54122;53.538;49.366;2023-05-31T02:43:40;22.27;;;2.97;;
67195;SDS011;54122;53.538;49.366;2023-05-31T02:46:06;18.75;;;2.92;;
67195;SDS011;54122;53.538;49.366;2023-05-31T02:48:32;14.25;;;2.40;;
67195;SDS011;54122;53.538;49.366;2023-05-31T02:50:59;10.93;;;2.38;;
67195;SDS011;54122;53.538;49.366;2023-05-31T02:53:26;8.85;;;2.40;;
67195;SDS011;54122;53.538;49.366;2023-05-31T02:55:53;12.00;;;2.85;;
67195;SDS011;54122;53.538;49.366;2023-05-31T02:58:20;8.48;;;2.10;;
67195;SDS011;54122;53.538;49.366;2023-05-31T03:00:46;17.42;;;2.63;;
67195;SDS011;54122;53.538;49.366;2023-05-31T03:03:13;15.70;;;2.85;;
67195;SDS011;54122;53.538;49.366;2023-05-31T03:05:49;16.23;;;2.60;;
67195;SDS011;54122;53.538;49.366;2023-05-31T03:08:15;10.73;;;2.35;;
67195;SDS011;54122;53.538;49.366;2023-05-31T03:10:42;17.13;;;2.25;;
67195;SDS011;54122;53.538;49.366;2023-05-31T03:13:08;8.85;;;2.85;;
67195;SDS011;54122;53.538;49.366;2023-05-31T03:15:36;19.77;;;2.70;;
67195;SDS011;54122;53.538;49.366;2023-05-31T03:18:03;17.50;;;2.47;;
67195;SDS011;54122;53.538;49.366;2023-05-31T03:20:31;5.30;;;2.35;;
67195;SDS011;54122;53.538;49.366;2023-05-31T03:22:59;17.75;;;2.33;;
67195;SDS011;54122;53.538;49.366;2023-05-31T03:25:25;12.95;;;3.55;;
67195;SDS011;54122;53.538;49.366;2023-05-31T03:27:53;17.10;;;2.40;;
67195;SDS011;54122;53.538;49.366;2023-05-31T03:30:19;19.17;;;2.83;;
67195;SDS011;54122;53.538;49.366;2023-05-31T03:32:46;13.02;;;2.33;;
67195;SDS011;54122;53.538;49.366;2023-05-31T03:35:12;20.38;;;2.30;;
67195;SDS011;54122;53.538;49.366;2023-05-31T03:37:39;18.60;;;2.72;;
67195;SDS011;54122;53.538;49.366;2023-05-31T03:40:06;9.32;;;2.10;;
67195;SDS011;54122;53.538;49.366;2023-05-31T03:42:34;24.50;;;2.83;;
67195;SDS011;54122;53.538;49.366;2023-05-31T03:45:01;15.23;;;2.45;;
67195;SDS011;54122;53.538;49.366;2023-05-31T03:47:28;8.82;;;2.60;;
67195;SDS011;54122;53.538;49.366;2023-05-31T03:49:54;14.77;;;2.85;;
67195;SDS011;54122;53.538;49.366;2023-05-31T03:52:22;13.32;;;2.33;;
67195;SDS011;54122;53.538;49.366;2023-05-31T03:54:51;10.85;;;2.72;;
67195;SDS011;54122;53.538;49.366;2023-05-31T03:57:18;20.48;;;2.47;;
67195;SDS011;54122;53.538;49.366;2023-05-31T03:59:44;21.20;;;2.67;;
67195;SDS011;54122;53.538;49.366;2023-05-31T04:02:10;24.58;;;2.38;;
67195;SDS011;54122;53.538;49.366;2023-05-31T04:04:37;17.70;;;2.80;;
67195;SDS011;54122;53.538;49.366;2023-05-31T04:07:04;29.33;;;3.00;;
67195;SDS011;54122;53.538;49.366;2023-05-31T04:09:31;16.70;;;2.78;;
67195;SDS011;54122;53.538;49.366;2023-05-31T04:11:57;13.60;;;3.20;;
67195;SDS011;54122;53.538;49.366;2023-05-31T04:14:24;16.48;;;3.28;;
67195;SDS011;54122;53.538;49.366;2023-05-31T04:16:50;15.10;;;3.20;;
67195;SDS011;54122;53.538;49.366;2023-05-31T04:19:16;26.25;;;3.42;;
67195;SDS011;54122;53.538;49.366;2023-05-31T04:21:42;14.88;;;3.00;;
67195;SDS011;54122;53.538;49.366;2023-05-31T04:24:09;27.85;;;3.17;;
67195;SDS011;54122;53.538;49.366;2023-05-31T04:26:35;16.02;;;3.30;;
67195;SDS011;54122;53.538;49.366;2023-05-31T04:29:03;11.57;;;3.17;;
67195;SDS011;54122;53.538;49.366;2023-05-31T04:31:29;19.55;;;3.20;;
67195;SDS011;54122;53.538;49.366;2023-05-31T04:33:55;11.43;;;3.42;;
67195;SDS011;54122;53.538;49.366;2023-05-31T04:36:24;18.55;;;3.25;;
67195;SDS011;54122;53.538;49.366;2023-05-31T04:38:50;12.98;;;3.08;;
67195;SDS011;54122;53.538;49.366;2023-05-31T04:41:22;24.77;;;3.72;;
67195;SDS011;54122;53.538;49.366;2023-05-31T04:43:54;19.25;;;3.80;;
67195;SDS011;54122;53.538;49.366;2023-05-31T04:46:22;18.95;;;3.85;;
67195;SDS011;54122;53.538;49.366;2023-05-31T04:48:49;24.73;;;3.78;;
67195;SDS011;54122;53.538;49.366;2023-05-31T04:51:18;16.55;;;3.30;;
67195;SDS011;54122;53.538;49.366;2023-05-31T04:53:45;13.68;;;3.17;;
67195;SDS011;54122;53.538;49.366;2023-05-31T04:56:11;17.88;;;3.80;;
67195;SDS011;54122;53.538;49.366;2023-05-31T04:58:38;19.17;;;3.53;;
67195;SDS011;54122;53.538;49.366;2023-05-31T05:01:06;16.90;;;4.18;;
67195;SDS011;54122;53.538;49.366;2023-05-31T05:03:32;29.30;;;3.63;;
67195;SDS011;54122;53.538;49.366;2023-05-31T05:06:18;23.90;;;3.70;;
67195;SDS011;54122;53.538;49.366;2023-05-31T05:11:30;15.40;;;3.90;;
67195;SDS011;54122;53.538;49.366;2023-05-31T05:13:56;19.90;;;3.85;;
67195;SDS011;54122;53.538;49.366;2023-05-31T05:16:22;18.95;;;3.53;;
67195;SDS011;54122;53.538;49.366;2023-05-31T05:18:49;13.98;;;3.60;;
67195;SDS011;54122;53.538;49.366;2023-05-31T05:21:15;21.60;;;3.90;;
67195;SDS011;54122;53.538;49.366;2023-05-31T05:23:42;18.80;;;3.67;;
67195;SDS011;54122;53.538;49.366;2023-05-31T05:31:38;17.65;;;3.85;;
67195;SDS011;54122;53.538;49.366;2023-05-31T05:34:05;23.48;;;3.72;;
67195;SDS011;54122;53.538;49.366;2023-05-31T05:36:31;19.00;;;4.38;;
67195;SDS011;54122;53.538;49.366;2023-05-31T05:38:57;20.80;;;3.65;;
67195;SDS011;54122;53.538;49.366;2023-05-31T05:41:29;19.33;;;3.83;;
67195;SDS011;54122;53.538;49.366;2023-05-31T05:43:56;14.50;;;3.25;;
67195;SDS011;54122;53.538;49.366;2023-05-31T05:46:23;18.63;;;3.85;;
67195;SDS011;54122;53.538;49.366;2023-05-31T05:48:49;49.42;;;5.00;;
67195;SDS011;54122;53.538;49.366;2023-05-31T05:51:16;18.38;;;4.10;;
67195;SDS011;54122;53.538;49.366;2023-05-31T05:53:42;20.95;;;3.85;;
67195;SDS011;54122;53.538;49.366;2023-05-31T05:56:08;19.15;;;4.82;;
67195;SDS011;54122;53.538;49.366;2023-05-31T06:04:06;31.50;;;4.57;;
67195;SDS011;54122;53.538;49.366;2023-05-31T06:06:33;37.85;;;4.88;;
67195;SDS011;54122;53.538;49.366;2023-05-31T06:08:59;21.25;;;4.47;;
67195;SDS011;54122;53.538;49.366;2023-05-31T06:11:25;37.67;;;4.50;;
67195;SDS011;54122;53.538;49.366;2023-05-31T06:13:52;20.75;;;4.43;;
67195;SDS011;54122;53.538;49.366;2023-05-31T06:16:21;35.72;;;4.60;;
67195;SDS011;54122;53.538;49.366;2023-05-31T06:18:49;20.40;;;3.97;;
67195;SDS011;54122;53.538;49.366;2023-05-31T06:21:18;28.23;;;4.85;;
67195;SDS011;54122;53.538;49.366;2023-05-31T06:23:46;21.35;;;5.03;;
67195;SDS011;54122;53.538;49.366;2023-05-31T06:26:12;29.42;;;4.55;;
67195;SDS011;54122;53.538;49.366;2023-05-31T06:28:38;23.40;;;4.72;;
67195;SDS011;54122;53.538;49.366;2023-05-31T06:31:05;19.20;;;4.60;;
67195;SDS011;54122;53.538;49.366;2023-05-31T06:33:33;18.80;;;4.68;;
67195;SDS011;54122;53.538;49.366;2023-05-31T06:35:59;28.00;;;4.50;;
67195;SDS011;54122;53.538;49.366;2023-05-31T06:38:26;29.80;;;4.28;;
67195;SDS011;54122;53.538;49.366;2023-05-31T06:40:52;27.38;;;4.20;;
67195;SDS011;54122;53.538;49.366;2023-05-31T06:43:18;23.73;;;3.95;;
67195;SDS011;54122;53.538;49.366;2023-05-31T06:45:45;30.92;;;4.55;;
67195;SDS011;54122;53.538;49.366;2023-05-31T06:51:36;23.73;;;4.38;;
67195;SDS011;54122;53.538;49.366;2023-05-31T06:54:21;25.35;;;4.40;;
67195;SDS011;54122;53.538;49.366;2023-05-31T06:57:06;30.08;;;5.32;;
67195;SDS011;54122;53.538;49.366;2023-05-31T06:59:51;28.25;;;3.95;;
67195;SDS011;54122;53.538;49.366;2023-05-31T07:02:35;17.55;;;4.18;;
67195;SDS011;54122;53.538;49.366;2023-05-31T07:05:01;15.43;;;3.53;;
67195;SDS011;54122;53.538;49.366;2023-05-31T07:07:28;24.75;;;4.25;;
67195;SDS011;54122;53.538;49.366;2023-05-31T07:09:55;15.60;;;3.65;;
67195;SDS011;54122;53.538;49.366;2023-05-31T07:12:22;18.58;;;3.58;;
67195;SDS011;54122;53.538;49.366;2023-05-31T07:14:49;17.15;;;4.03;;
67195;SDS011;54122;53.538;49.366;2023-05-31T07:17:15;20.35;;;4.63;;
67195;SDS011;54122;53.538;49.366;2023-05-31T07:19:48;17.83;;;4.15;;
67195;SDS011;54122;53.538;49.366;2023-05-31T07:22:15;19.17;;;3.75;;
67195;SDS011;54122;53.538;49.366;2023-05-31T07:24:43;22.17;;;3.97;;
67195;SDS011;54122;53.538;49.366;2023-05-31T07:27:10;15.70;;;4.35;;
67195;SDS011;54122;53.538;49.366;2023-05-31T07:29:54;17.20;;;3.90;;
67195;SDS011;54122;53.538;49.366;2023-05-31T07:32:21;13.98;;;3.88;;
67195;SDS011;54122;53.538;49.366;2023-05-31T07:34:47;19.98;;;4.60;;
67195;SDS011;54122;53.538;49.366;2023-05-31T07:37:14;15.18;;;4.60;;
67195;SDS011;54122;53.538;49.366;2023-05-31T07:45:11;20.50;;;4.18;;
67195;SDS011;54122;53.538;49.366;2023-05-31T07:47:37;24.95;;;4.75;;
67195;SDS011;54122;53.538;49.366;2023-05-31T07:50:04;28.02;;;4.10;;
67195;SDS011;54122;53.538;49.366;2023-05-31T07:55:17;20.88;;;4.82;;
67195;SDS011;54122;53.538;49.366;2023-05-31T07:57:43;23.25;;;4.30;;
67195;SDS011;54122;53.538;49.366;2023-05-31T08:00:10;23.75;;;4.90;;
67195;SDS011;54122;53.538;49.366;2023-05-31T08:02:55;20.95;;;4.38;;
67195;SDS011;54122;53.538;49.366;2023-05-31T08:08:07;26.27;;;4.88;;
67195;SDS011;54122;53.538;49.366;2023-05-31T08:10:33;15.88;;;4.13;;
67195;SDS011;54122;53.538;49.366;2023-05-31T08:13:00;28.27;;;5.97;;
67195;SDS011;54122;53.538;49.366;2023-05-31T08:16:03;30.05;;;5.15;;
67195;SDS011;54122;53.538;49.366;2023-05-31T08:18:30;22.20;;;4.53;;
67195;SDS011;54122;53.538;49.366;2023-05-31T08:20:57;24.90;;;4.28;;
67195;SDS011;54122;53.538;49.366;2023-05-31T08:26:28;15.40;;;4.35;;
67195;SDS011;54122;53.538;49.366;2023-05-31T08:28:54;17.60;;;4.63;;
67195;SDS011;54122;53.538;49.366;2023-05-31T08:31:21;21.05;;;4.60;;
67195;SDS011;54122;53.538;49.366;2023-05-31T08:33:57;19.35;;;4.30;;
67195;SDS011;54122;53.538;49.366;2023-05-31T08:36:25;18.98;;;5.03;;
67195;SDS011;54122;53.538;49.366;2023-05-31T08:38:52;17.20;;;4.45;;
67195;SDS011;54122;53.538;49.366;2023-05-31T08:46:34;24.65;;;5.85;;
67195;SDS011;54122;53.538;49.366;2023-05-31T08:49:04;27.50;;;4.72;;
67195;SDS011;54122;53.538;49.366;2023-05-31T08:51:36;24.77;;;4.82;;
67195;SDS011;54122;53.538;49.366;2023-05-31T08:54:21;20.92;;;5.03;;
67195;SDS011;54122;53.538;49.366;2023-05-31T08:59:37;19.55;;;3.78;;
67195;SDS011;54122;53.538;49.366;2023-05-31T09:02:04;24.48;;;4.15;;
67195;SDS011;54122;53.538;49.366;2023-05-31T09:04:31;20.85;;;4.80;;
67195;SDS011;54122;53.538;49.366;2023-05-31T09:10:03;28.85;;;4.45;;
67195;SDS011;54122;53.538;49.366;2023-05-31T09:12:31;20.17;;;4.28;;
67195;SDS011;54122;53.538;49.366;2023-05-31T09:14:57;17.48;;;3.92;;
67195;SDS011;54122;53.538;49.366;2023-05-31T09:17:24;17.50;;;4.25;;
67195;SDS011;54122;53.538;49.366;2023-05-31T09:19:52;22.48;;;5.22;;
67195;SDS011;54122;53.538;49.366;2023-05-31T09:22:21;17.40;;;4.15;;
67195;SDS011;54122;53.538;49.366;2023-05-31T09:24:54;21.38;;;4.95;;
67195;SDS011;54122;53.538;49.366;2023-05-31T09:27:22;22.83;;;4.75;;
67195;SDS011;54122;53.538;49.366;2023-05-31T09:29:55;20.73;;;4.63;;
67195;SDS011;54122;53.538;49.366;2023-05-31T09:32:21;28.83;;;4.70;;
67195;SDS011;54122;53.538;49.366;2023-05-31T09:34:48;26.17;;;4.90;;
67195;SDS011;54122;53.538;49.366;2023-05-31T09:37:24;19.25;;;4.55;;
67195;SDS011;54122;53.538;49.366;2023-05-31T09:39:54;26.27;;;4.78;;
67195;SDS011;54122;53.538;49.366;2023-05-31T09:42:21;30.80;;;5.65;;
67195;SDS011;54122;53.538;49.366;2023-05-31T09:44:52;36.97;;;5.03;;
67195;SDS011;54122;53.538;49.366;2023-05-31T09:47:24;23.83;;;6.28;;
67195;SDS011;54122;53.538;49.366;2023-05-31T09:49:55;34.92;;;5.30;;
67195;SDS011;54122;53.538;49.366;2023-05-31T09:52:28;40.55;;;5.50;;
67195;SDS011;54122;53.538;49.366;2023-05-31T09:55:13;31.60;;;5.00;;
67195;SDS011;54122;53.538;49.366;2023-05-31T09:57:41;31.98;;;5.75;;
67195;SDS011;54122;53.538;49.366;2023-05-31T10:00:10;22.67;;;4.85;;
67195;SDS011;54122;53.538;49.366;2023-05-31T10:02:45;25.38;;;5.43;;
67195;SDS011;54122;53.538;49.366;2023-05-31T10:05:12;27.13;;;5.47;;
67195;SDS011;54122;53.538;49.366;2023-05-31T10:07:39;31.48;;;5.28;;
67195;SDS011;54122;53.538;49.366;2023-05-31T10:10:07;24.42;;;4.80;;
67195;SDS011;54122;53.538;49.366;2023-05-31T10:12:57;24.92;;;5.50;;
67195;SDS011;54122;53.538;49.366;2023-05-31T10:15:24;31.13;;;4.88;;
67195;SDS011;54122;53.538;49.366;2023-05-31T10:23:57;18.80;;;4.95;;
67195;SDS011;54122;53.538;49.366;2023-05-31T10:26:31;19.55;;;4.20;;
67195;SDS011;54122;53.538;49.366;2023-05-31T10:29:31;23.45;;;4.75;;
67195;SDS011;54122;53.538;49.366;2023-05-31T10:34:52;20.65;;;4.72;;
67195;SDS011;54122;53.538;49.366;2023-05-31T10:37:18;16.85;;;4.30;;
67195;SDS011;54122;53.538;49.366;2023-05-31T10:40:03;18.70;;;4.88;;
67195;SDS011;54122;53.538;49.366;2023-05-31T10:45:26;32.83;;;4.85;;
67195;SDS011;54122;53.538;49.366;2023-05-31T10:48:14;20.58;;;4.20;;
67195;SDS011;54122;53.538;49.366;2023-05-31T10:51:18;19.25;;;4.35;;
67195;SDS011;54122;53.538;49.366;2023-05-31T10:53:45;20.08;;;4.32;;
67195;SDS011;54122;53.538;49.366;2023-05-31T10:56:30;14.95;;;3.38;;
67195;SDS011;54122;53.538;49.366;2023-05-31T11:01:42;14.73;;;3.30;;
67195;SDS011;54122;53.538;49.366;2023-05-31T11:04:20;11.35;;;2.97;;
67195;SDS011;54122;53.538;49.366;2023-05-31T11:07:19;22.98;;;3.83;;
67195;SDS011;54122;53.538;49.366;2023-05-31T11:09:54;19.75;;;3.05;;
67195;SDS011;54122;53.538;49.366;2023-05-31T11:12:37;16.83;;;3.38;;
67195;SDS011;54122;53.538;49.366;2023-05-31T11:15:11;18.13;;;3.92;;
67195;SDS011;54122;53.538;49.366;2023-05-31T11:17:39;14.30;;;3.13;;
67195;SDS011;54122;53.538;49.366;2023-05-31T11:26:08;29.25;;;3.30;;
67195;SDS011;54122;53.538;49.366;2023-05-31T11:28:51;14.65;;;3.22;;
67195;SDS011;54122;53.538;49.366;2023-05-31T11:34:21;19.52;;;2.97;;
67195;SDS011;54122;53.538;49.366;2023-05-31T11:36:49;20.67;;;3.58;;
67195;SDS011;54122;53.538;49.366;2023-05-31T11:39:35;14.70;;;2.92;;
67195;SDS011;54122;53.538;49.366;2023-05-31T11:42:20;20.55;;;2.63;;
67195;SDS011;54122;53.538;49.366;2023-05-31T11:44:47;24.45;;;2.75;;
67195;SDS011;54122;53.538;49.366;2023-05-31T11:47:50;19.65;;;2.90;;
67195;SDS011;54122;53.538;49.366;2023-05-31T11:50:23;17.00;;;2.60;;
67195;SDS011;54122;53.538;49.366;2023-05-31T11:53:09;10.50;;;2.72;;
67195;SDS011;54122;53.538;49.366;2023-05-31T11:55:37;14.48;;;2.80;;
67195;SDS011;54122;53.538;49.366;2023-05-31T12:01:11;12.30;;;2.72;;
67195;SDS011;54122;53.538;49.366;2023-05-31T12:03:41;19.98;;;2.67;;
67195;SDS011;54122;53.538;49.366;2023-05-31T12:08:54;19.33;;;3.47;;
67195;SDS011;54122;53.538;49.366;2023-05-31T12:11:20;11.88;;;2.75;;
67195;SDS011;54122;53.538;49.366;2023-05-31T12:13:47;20.00;;;8.25;;
67195;SDS011;54122;53.538;49.366;2023-05-31T12:16:14;16.10;;;3.13;;
67195;SDS011;54122;53.538;49.366;2023-05-31T12:18:40;14.70;;;2.80;;
67195;SDS011;54122;53.538;49.366;2023-05-31T12:21:25;24.42;;;3.35;;
67195;SDS011;54122;53.538;49.366;2023-05-31T12:24:10;18.20;;;2.63;;
67195;SDS011;54122;53.538;49.366;2023-05-31T12:29:08;10.05;;;2.40;;
67195;SDS011;54122;53.538;49.366;2023-05-31T12:31:36;10.98;;;2.20;;
67195;SDS011;54122;53.538;49.366;2023-05-31T12:36:42;8.98;;;2.30;;
67195;SDS011;54122;53.538;49.366;2023-05-31T12:39:14;9.50;;;2.30;;
67195;SDS011;54122;53.538;49.366;2023-05-31T12:41:46;15.98;;;2.88;;
67195;SDS011;54122;53.538;49.366;2023-05-31T12:44:20;9.02;;;2.03;;
67195;SDS011;54122;53.538;49.366;2023-05-31T12:46:47;15.32;;;2.33;;
67195;SDS011;54122;53.538;49.366;2023-05-31T12:51:58;8.93;;;3.05;;
67195;SDS011;54122;53.538;49.366;2023-05-31T12:57:11;12.38;;;2.72;;
67195;SDS011;54122;53.538;49.366;2023-05-31T13:02:27;15.35;;;2.72;;
67195;SDS011;54122;53.538;49.366;2023-05-31T13:05:11;15.40;;;2.33;;
67195;SDS011;54122;53.538;49.366;2023-05-31T13:07:38;9.68;;;2.67;;
67195;SDS011;54122;53.538;49.366;2023-05-31T13:10:22;8.48;;;1.90;;
67195;SDS011;54122;53.538;49.366;2023-05-31T13:12:48;8.70;;;1.98;;
67195;SDS011;54122;53.538;49.366;2023-05-31T13:15:33;11.32;;;2.58;;
67195;SDS011;54122;53.538;49.366;2023-05-31T13:17:59;11.30;;;2.10;;
67195;SDS011;54122;53.538;49.366;2023-05-31T13:20:25;18.38;;;2.10;;
67195;SDS011;54122;53.538;49.366;2023-05-31T13:22:52;12.35;;;2.03;;
67195;SDS011;54122;53.538;49.366;2023-05-31T13:25:18;16.83;;;2.40;;
67195;SDS011;54122;53.538;49.366;2023-05-31T13:27:44;15.88;;;2.17;;
67195;SDS011;54122;53.538;49.366;2023-05-31T13:30:29;9.85;;;2.15;;
67195;SDS011;54122;53.538;49.366;2023-05-31T13:33:13;19.83;;;2.55;;
67195;SDS011;54122;53.538;49.366;2023-05-31T13:35:40;14.57;;;2.58;;
67195;SDS011;54122;53.538;49.366;2023-05-31T13:38:06;13.35;;;3.05;;
67195;SDS011;54122;53.538;49.366;2023-05-31T13:40:50;10.07;;;2.15;;
67195;SDS011;54122;53.538;49.366;2023-05-31T13:43:35;9.80;;;2.22;;
67195;SDS011;54122;53.538;49.366;2023-05-31T13:46:04;17.00;;;2.17;;
67195;SDS011;54122;53.538;49.366;2023-05-31T13:48:35;10.63;;;2.60;;
67195;SDS011;54122;53.538;49.366;2023-05-31T13:51:04;16.38;;;2.33;;
67195;SDS011;54122;53.538;49.366;2023-05-31T13:53:31;21.75;;;2.50;;
67195;SDS011;54122;53.538;49.366;2023-05-31T13:55:58;15.25;;;2.80;;
67195;SDS011;54122;53.538;49.366;2023-05-31T13:58:24;8.40;;;2.33;;
67195;SDS011;54122;53.538;49.366;2023-05-31T14:00:50;18.00;;;2.90;;
67195;SDS011;54122;53.538;49.366;2023-05-31T14:03:18;21.50;;;2.63;;
67195;SDS011;54122;53.538;49.366;2023-05-31T14:05:49;21.17;;;3.28;;
67195;SDS011;54122;53.538;49.366;2023-05-31T14:08:16;12.23;;;2.60;;
67195;SDS011;54122;53.538;49.366;2023-05-31T14:10:42;9.52;;;2.45;;
67195;SDS011;54122;53.538;49.366;2023-05-31T14:13:08;9.98;;;2.55;;
67195;SDS011;54122;53.538;49.366;2023-05-31T14:15:36;9.75;;;2.58;;
67195;SDS011;54122;53.538;49.366;2023-05-31T14:18:02;12.32;;;2.80;;
67195;SDS011;54122;53.538;49.366;2023-05-31T14:20:29;16.23;;;2.97;;
67195;SDS011;54122;53.538;49.366;2023-05-31T14:22:55;14.32;;;2.50;;
67195;SDS011;54122;53.538;49.366;2023-05-31T14:25:40;8.95;;;2.47;;
67195;SDS011;54122;53.538;49.366;2023-05-31T14:28:06;10.90;;;2.72;;
67195;SDS011;54122;53.538;49.366;2023-05-31T14:30:32;10.70;;;2.90;;
67195;SDS011;54122;53.538;49.366;2023-05-31T14:33:17;10.85;;;2.55;;
67195;SDS011;54122;53.538;49.366;2023-05-31T14:39:05;13.00;;;2.22;;
67195;SDS011;54122;53.538;49.366;2023-05-31T14:41:50;13.68;;;2.47;;
67195;SDS011;54122;53.538;49.366;2023-05-31T14:44:16;12.68;;;2.30;;
67195;SDS011;54122;53.538;49.366;2023-05-31T14:46:43;9.77;;;2.50;;
67195;SDS011;54122;53.538;49.366;2023-05-31T14:49:09;16.13;;;2.67;;
67195;SDS011;54122;53.538;49.366;2023-05-31T14:51:35;11.50;;;2.80;;
67195;SDS011;54122;53.538;49.366;2023-05-31T14:54:02;10.10;;;2.00;;
67195;SDS011;54122;53.538;49.366;2023-05-31T14:56:46;12.70;;;2.15;;
67195;SDS011;54122;53.538;49.366;2023-05-31T14:59:31;11.38;;;2.10;;
67195;SDS011;54122;53.538;49.366;2023-05-31T15:01:58;12.27;;;2.38;;
67195;SDS011;54122;53.538;49.366;2023-05-31T15:04:25;10.30;;;2.42;;
67195;SDS011;54122;53.538;49.366;2023-05-31T15:06:52;10.18;;;3.28;;
67195;SDS011;54122;53.538;49.366;2023-05-31T15:09:19;9.77;;;3.58;;
67195;SDS011;54122;53.538;49.366;2023-05-31T15:11:45;12.57;;;3.75;;
67195;SDS011;54122;53.538;49.366;2023-05-31T15:14:12;20.13;;;2.83;;
67195;SDS011;54122;53.538;49.366;2023-05-31T15:16:39;13.50;;;2.38;;
67195;SDS011;54122;53.538;49.366;2023-05-31T15:19:05;4.75;;;1.40;;
67195;SDS011;54122;53.538;49.366;2023-05-31T15:21:32;6.68;;;2.50;;
67195;SDS011;54122;53.538;49.366;2023-05-31T15:23:58;11.60;;;2.40;;
67195;SDS011;54122;53.538;49.366;2023-05-31T15:31:55;9.75;;;2.28;;
67195;SDS011;54122;53.538;49.366;2023-05-31T15:34:26;12.07;;;2.90;;
67195;SDS011;54122;53.538;49.366;2023-05-31T15:39:55;6.22;;;1.50;;
67195;SDS011;54122;53.538;49.366;2023-05-31T15:42:39;13.93;;;1.90;;
67195;SDS011;54122;53.538;49.366;2023-05-31T15:45:06;5.93;;;1.73;;
67195;SDS011;54122;53.538;49.366;2023-05-31T15:47:33;12.38;;;1.45;;
67195;SDS011;54122;53.538;49.366;2023-05-31T15:49:59;15.30;;;1.92;;
67195;SDS011;54122;53.538;49.366;2023-05-31T15:52:45;4.55;;;1.75;;
67195;SDS011;54122;53.538;49.366;2023-05-31T15:55:11;6.72;;;1.75;;
67195;SDS011;54122;53.538;49.366;2023-05-31T16:00:22;9.57;;;2.72;;
67195;SDS011;54122;53.538;49.366;2023-05-31T16:03:07;27.05;;;10.70;;
67195;SDS011;54122;53.538;49.366;2023-05-31T16:05:33;11.32;;;5.75;;
67195;SDS011;54122;53.538;49.366;2023-05-31T16:07:59;15.38;;;7.22;;
67195;SDS011;54122;53.538;49.366;2023-05-31T16:10:29;6.60;;;2.60;;
67195;SDS011;54122;53.538;49.366;2023-05-31T16:12:56;10.48;;;3.22;;
67195;SDS011;54122;53.538;49.366;2023-05-31T16:15:25;12.60;;;3.65;;
67195;SDS011;54122;53.538;49.366;2023-05-31T16:17:52;10.13;;;3.17;;
67195;SDS011;54122;53.538;49.366;2023-05-31T16:20:36;18.85;;;8.32;;
67195;SDS011;54122;53.538;49.366;2023-05-31T16:23:40;8.23;;;3.15;;
67195;SDS011;54122;53.538;49.366;2023-05-31T16:26:07;5.88;;;3.00;;